sensor_id;sensor_type;location;lat;lon;timestamp;temperature;humidity
52879;DHT22;38747;53.140;6.498;2023-10-19T00:00:33;8.00;99.90
52879;DHT22;38747;53.140;6.498;2023-10-19T00:03:00;7.90;99.90
52879;DHT22;38747;53.140;6.498;2023-10-19T00:05:29;8.00;99.90
52879;DHT22;38747;53.140;6.498;2023-10-19T00:07:56;7.90;99.90
52879;DHT22;38747;53.140;6.498;2023-10-19T00:10:26;7.90;99.90
52879;DHT22;38747;53.140;6.498;2023-10-19T00:12:56;7.90;99.90
52879;DHT22;38747;53.140;6.498;2023-10-19T00:15:35;7.90;99.90
52879;DHT22;38747;53.140;6.498;2023-10-19T00:18:05;7.90;99.90
52879;DHT22;38747;53.140;6.498;2023-10-19T00:20:51;7.90;99.90
52879;DHT22;38747;53.140;6.498;2023-10-19T00:23:19;7.90;99.90
52879;DHT22;38747;53.140;6.498;2023-10-19T00:25:50;7.90;99.90
52879;DHT22;38747;53.140;6.498;2023-10-19T00:28:18;7.90;99.90
52879;DHT22;38747;53.140;6.498;2023-10-19T00:30:44;7.90;99.90
52879;DHT22;38747;53.140;6.498;2023-10-19T00:33:11;7.90;99.90
52879;DHT22;38747;53.140;6.498;2023-10-19T00:35:46;7.90;99.90
52879;DHT22;38747;53.140;6.498;2023-10-19T00:38:24;7.90;99.90
52879;DHT22;38747;53.140;6.498;2023-10-19T00:40:51;7.90;99.90
52879;DHT22;38747;53.140;6.498;2023-10-19T00:43:31;7.90;99.90
52879;DHT22;38747;53.140;6.498;2023-10-19T00:46:03;7.90;99.90
52879;DHT22;38747;53.140;6.498;2023-10-19T00:48:32;7.90;99.90
52879;DHT22;38747;53.140;6.498;2023-10-19T00:51:00;7.90;99.90
52879;DHT22;38747;53.140;6.498;2023-10-19T00:53:37;7.90;99.90
52879;DHT22;38747;53.140;6.498;2023-10-19T00:56:06;7.90;99.90
52879;DHT22;38747;53.140;6.498;2023-10-19T00:58:34;7.90;99.90
52879;DHT22;38747;53.140;6.498;2023-10-19T01:01:02;7.90;99.90
52879;DHT22;38747;53.140;6.498;2023-10-19T01:03:31;7.90;99.90
52879;DHT22;38747;53.140;6.498;2023-10-19T01:06:01;7.90;99.90
52879;DHT22;38747;53.140;6.498;2023-10-19T01:08:31;7.90;99.90
52879;DHT22;38747;53.140;6.498;2023-10-19T01:11:07;7.90;99.90
52879;DHT22;38747;53.140;6.498;2023-10-19T01:13:37;7.90;99.90
52879;DHT22;38747;53.140;6.498;2023-10-19T01:16:03;7.90;99.90
52879;DHT22;38747;53.140;6.498;2023-10-19T01:18:30;7.90;99.90
52879;DHT22;38747;53.140;6.498;2023-10-19T01:20:59;7.90;99.90
52879;DHT22;38747;53.140;6.498;2023-10-19T01:23:29;7.90;99.90
52879;DHT22;38747;53.140;6.498;2023-10-19T01:25:57;7.90;99.90
52879;DHT22;38747;53.140;6.498;2023-10-19T01:31:13;7.90;99.90
52879;DHT22;38747;53.140;6.498;2023-10-19T01:33:43;7.90;99.90
52879;DHT22;38747;53.140;6.498;2023-10-19T01:36:10;7.90;99.90
52879;DHT22;38747;53.140;6.498;2023-10-19T01:38:48;7.90;99.90
52879;DHT22;38747;53.140;6.498;2023-10-19T01:41:14;7.90;99.90
52879;DHT22;38747;53.140;6.498;2023-10-19T01:43:44;7.90;99.90
52879;DHT22;38747;53.140;6.498;2023-10-19T01:46:11;7.90;99.90
52879;DHT22;38747;53.140;6.498;2023-10-19T01:48:41;7.90;99.90
52879;DHT22;38747;53.140;6.498;2023-10-19T01:51:09;7.90;99.90
52879;DHT22;38747;53.140;6.498;2023-10-19T01:53:41;7.90;99.90
52879;DHT22;38747;53.140;6.498;2023-10-19T01:56:14;7.90;99.90
52879;DHT22;38747;53.140;6.498;2023-10-19T01:58:41;7.90;99.90
52879;DHT22;38747;53.140;6.498;2023-10-19T02:01:08;7.80;99.90
52879;DHT22;38747;53.140;6.498;2023-10-19T02:04:00;7.80;99.90
52879;DHT22;38747;53.140;6.498;2023-10-19T02:06:27;7.90;99.90
52879;DHT22;38747;53.140;6.498;2023-10-19T02:09:10;7.80;99.90
52879;DHT22;38747;53.140;6.498;2023-10-19T02:11:55;7.90;99.90
52879;DHT22;38747;53.140;6.498;2023-10-19T02:14:22;7.90;99.90
52879;DHT22;38747;53.140;6.498;2023-10-19T02:16:53;7.80;99.90
52879;DHT22;38747;53.140;6.498;2023-10-19T02:19:22;7.80;99.90
52879;DHT22;38747;53.140;6.498;2023-10-19T02:21:54;7.80;99.90
52879;DHT22;38747;53.140;6.498;2023-10-19T02:24:21;7.80;99.90
52879;DHT22;38747;53.140;6.498;2023-10-19T02:26:51;7.80;99.90
52879;DHT22;38747;53.140;6.498;2023-10-19T02:29:17;7.90;99.90
52879;DHT22;38747;53.140;6.498;2023-10-19T02:31:44;7.80;99.90
52879;DHT22;38747;53.140;6.498;2023-10-19T02:34:12;7.80;99.90
52879;DHT22;38747;53.140;6.498;2023-10-19T02:36:41;7.80;99.90
52879;DHT22;38747;53.140;6.498;2023-10-19T02:39:13;7.80;99.90
52879;DHT22;38747;53.140;6.498;2023-10-19T02:41:40;7.80;99.90
52879;DHT22;38747;53.140;6.498;2023-10-19T02:44:12;7.80;99.90
52879;DHT22;38747;53.140;6.498;2023-10-19T02:46:44;7.80;99.90
52879;DHT22;38747;53.140;6.498;2023-10-19T02:49:12;7.80;99.90
52879;DHT22;38747;53.140;6.498;2023-10-19T02:51:40;7.80;99.90
52879;DHT22;38747;53.140;6.498;2023-10-19T02:54:07;7.80;99.90
52879;DHT22;38747;53.140;6.498;2023-10-19T02:56:34;7.80;99.90
52879;DHT22;38747;53.140;6.498;2023-10-19T02:59:06;7.80;99.90
52879;DHT22;38747;53.140;6.498;2023-10-19T03:01:31;7.80;99.90
52879;DHT22;38747;53.140;6.498;2023-10-19T03:03:59;7.80;99.90
52879;DHT22;38747;53.140;6.498;2023-10-19T03:06:29;7.80;99.90
52879;DHT22;38747;53.140;6.498;2023-10-19T03:08:58;7.80;99.90
52879;DHT22;38747;53.140;6.498;2023-10-19T03:11:27;7.80;99.90
52879;DHT22;38747;53.140;6.498;2023-10-19T03:13:54;7.90;99.90
52879;DHT22;38747;53.140;6.498;2023-10-19T03:16:21;7.80;99.90
52879;DHT22;38747;53.140;6.498;2023-10-19T03:18:47;7.80;99.90
52879;DHT22;38747;53.140;6.498;2023-10-19T03:21:13;7.80;99.90
52879;DHT22;38747;53.140;6.498;2023-10-19T03:23:38;7.80;99.90
52879;DHT22;38747;53.140;6.498;2023-10-19T03:26:09;7.80;99.90
52879;DHT22;38747;53.140;6.498;2023-10-19T03:28:52;7.80;99.90
52879;DHT22;38747;53.140;6.498;2023-10-19T03:31:24;7.90;99.90
52879;DHT22;38747;53.140;6.498;2023-10-19T03:33:53;7.90;99.90
52879;DHT22;38747;53.140;6.498;2023-10-19T03:36:25;7.90;99.90
52879;DHT22;38747;53.140;6.498;2023-10-19T03:38:52;7.90;99.90
52879;DHT22;38747;53.140;6.498;2023-10-19T03:41:19;7.90;99.90
52879;DHT22;38747;53.140;6.498;2023-10-19T03:43:52;7.90;99.90
52879;DHT22;38747;53.140;6.498;2023-10-19T03:46:20;7.90;99.90
52879;DHT22;38747;53.140;6.498;2023-10-19T03:48:59;7.90;99.90
52879;DHT22;38747;53.140;6.498;2023-10-19T03:51:29;7.90;99.90
52879;DHT22;38747;53.140;6.498;2023-10-19T03:54:06;7.90;99.90
52879;DHT22;38747;53.140;6.498;2023-10-19T03:56:48;7.90;99.90
52879;DHT22;38747;53.140;6.498;2023-10-19T03:59:14;8.00;99.90
52879;DHT22;38747;53.140;6.498;2023-10-19T04:01:41;8.00;99.90
52879;DHT22;38747;53.140;6.498;2023-10-19T04:04:09;7.90;99.90
52879;DHT22;38747;53.140;6.498;2023-10-19T04:06:35;8.00;99.90
52879;DHT22;38747;53.140;6.498;2023-10-19T04:09:02;7.90;99.90
52879;DHT22;38747;53.140;6.498;2023-10-19T04:11:31;8.00;99.90
52879;DHT22;38747;53.140;6.498;2023-10-19T04:14:16;8.00;99.90
52879;DHT22;38747;53.140;6.498;2023-10-19T04:16:43;8.00;99.90
52879;DHT22;38747;53.140;6.498;2023-10-19T04:19:13;8.00;99.90
52879;DHT22;38747;53.140;6.498;2023-10-19T04:21:40;8.00;99.90
52879;DHT22;38747;53.140;6.498;2023-10-19T04:24:10;8.00;99.90
52879;DHT22;38747;53.140;6.498;2023-10-19T04:26:39;8.00;99.90
52879;DHT22;38747;53.140;6.498;2023-10-19T04:29:05;8.00;99.90
52879;DHT22;38747;53.140;6.498;2023-10-19T04:31:40;8.00;99.90
52879;DHT22;38747;53.140;6.498;2023-10-19T04:34:26;8.10;99.90
52879;DHT22;38747;53.140;6.498;2023-10-19T04:36:52;8.00;99.90
52879;DHT22;38747;53.140;6.498;2023-10-19T04:39:18;8.00;99.90
52879;DHT22;38747;53.140;6.498;2023-10-19T04:41:46;8.00;99.90
52879;DHT22;38747;53.140;6.498;2023-10-19T04:44:14;8.10;99.90
52879;DHT22;38747;53.140;6.498;2023-10-19T04:46:41;8.00;99.90
52879;DHT22;38747;53.140;6.498;2023-10-19T04:49:07;8.10;99.90
52879;DHT22;38747;53.140;6.498;2023-10-19T04:51:34;8.00;99.90
52879;DHT22;38747;53.140;6.498;2023-10-19T04:54:01;8.10;99.90
52879;DHT22;38747;53.140;6.498;2023-10-19T04:56:27;8.10;99.90
52879;DHT22;38747;53.140;6.498;2023-10-19T04:58:53;8.10;99.90
52879;DHT22;38747;53.140;6.498;2023-10-19T05:01:19;8.10;99.90
52879;DHT22;38747;53.140;6.498;2023-10-19T05:03:44;8.10;99.90
52879;DHT22;38747;53.140;6.498;2023-10-19T05:06:10;8.10;99.90
52879;DHT22;38747;53.140;6.498;2023-10-19T05:08:37;8.10;99.90
52879;DHT22;38747;53.140;6.498;2023-10-19T05:11:03;8.10;99.90
52879;DHT22;38747;53.140;6.498;2023-10-19T05:13:31;8.10;99.90
52879;DHT22;38747;53.140;6.498;2023-10-19T05:15:58;8.10;99.90
52879;DHT22;38747;53.140;6.498;2023-10-19T05:18:27;8.10;99.90
52879;DHT22;38747;53.140;6.498;2023-10-19T05:20:53;8.10;99.90
52879;DHT22;38747;53.140;6.498;2023-10-19T05:23:23;8.10;99.90
52879;DHT22;38747;53.140;6.498;2023-10-19T05:25:50;8.10;99.90
52879;DHT22;38747;53.140;6.498;2023-10-19T05:28:17;8.20;99.90
52879;DHT22;38747;53.140;6.498;2023-10-19T05:30:44;8.10;99.90
52879;DHT22;38747;53.140;6.498;2023-10-19T05:33:10;8.10;99.90
52879;DHT22;38747;53.140;6.498;2023-10-19T05:35:35;8.10;99.90
52879;DHT22;38747;53.140;6.498;2023-10-19T05:38:06;8.10;99.90
52879;DHT22;38747;53.140;6.498;2023-10-19T05:40:32;8.10;99.90
52879;DHT22;38747;53.140;6.498;2023-10-19T05:42:58;8.10;99.90
52879;DHT22;38747;53.140;6.498;2023-10-19T05:45:25;8.10;99.90
52879;DHT22;38747;53.140;6.498;2023-10-19T05:47:52;8.10;99.90
52879;DHT22;38747;53.140;6.498;2023-10-19T05:50:17;8.10;99.90
52879;DHT22;38747;53.140;6.498;2023-10-19T05:52:43;8.10;99.90
52879;DHT22;38747;53.140;6.498;2023-10-19T05:55:10;8.20;99.90
52879;DHT22;38747;53.140;6.498;2023-10-19T05:57:39;8.10;99.90
52879;DHT22;38747;53.140;6.498;2023-10-19T06:00:10;8.10;99.90
52879;DHT22;38747;53.140;6.498;2023-10-19T06:02:48;8.10;99.90
52879;DHT22;38747;53.140;6.498;2023-10-19T06:05:16;8.10;99.90
52879;DHT22;38747;53.140;6.498;2023-10-19T06:07:44;8.10;99.90
52879;DHT22;38747;53.140;6.498;2023-10-19T06:10:13;8.10;99.90
52879;DHT22;38747;53.140;6.498;2023-10-19T06:12:42;8.20;99.90
52879;DHT22;38747;53.140;6.498;2023-10-19T06:15:10;8.20;99.90
52879;DHT22;38747;53.140;6.498;2023-10-19T06:17:37;8.20;99.90
52879;DHT22;38747;53.140;6.498;2023-10-19T06:20:05;8.10;99.90
52879;DHT22;38747;53.140;6.498;2023-10-19T06:22:33;8.20;99.90
52879;DHT22;38747;53.140;6.498;2023-10-19T06:25:02;8.20;99.90
52879;DHT22;38747;53.140;6.498;2023-10-19T06:27:30;8.20;99.90
52879;DHT22;38747;53.140;6.498;2023-10-19T06:29:57;8.20;99.90
52879;DHT22;38747;53.140;6.498;2023-10-19T06:32:22;8.20;99.90
52879;DHT22;38747;53.140;6.498;2023-10-19T06:34:48;8.20;99.90
52879;DHT22;38747;53.140;6.498;2023-10-19T06:37:14;8.20;99.90
52879;DHT22;38747;53.140;6.498;2023-10-19T06:39:40;8.20;99.90
52879;DHT22;38747;53.140;6.498;2023-10-19T06:42:08;8.20;99.90
52879;DHT22;38747;53.140;6.498;2023-10-19T06:44:41;8.20;99.90
52879;DHT22;38747;53.140;6.498;2023-10-19T06:47:09;8.20;99.90
52879;DHT22;38747;53.140;6.498;2023-10-19T06:49:36;8.20;99.90
52879;DHT22;38747;53.140;6.498;2023-10-19T06:52:02;8.30;99.90
52879;DHT22;38747;53.140;6.498;2023-10-19T06:54:30;8.30;99.90
52879;DHT22;38747;53.140;6.498;2023-10-19T06:56:56;8.30;99.90
52879;DHT22;38747;53.140;6.498;2023-10-19T06:59:21;8.30;99.90
52879;DHT22;38747;53.140;6.498;2023-10-19T07:01:49;8.30;99.90
52879;DHT22;38747;53.140;6.498;2023-10-19T07:04:15;8.30;99.90
52879;DHT22;38747;53.140;6.498;2023-10-19T07:06:41;8.30;99.90
52879;DHT22;38747;53.140;6.498;2023-10-19T07:09:07;8.30;99.90
52879;DHT22;38747;53.140;6.498;2023-10-19T07:11:35;8.30;99.90
52879;DHT22;38747;53.140;6.498;2023-10-19T07:14:01;8.30;99.90
52879;DHT22;38747;53.140;6.498;2023-10-19T07:16:27;8.30;99.90
52879;DHT22;38747;53.140;6.498;2023-10-19T07:18:52;8.30;99.90
52879;DHT22;38747;53.140;6.498;2023-10-19T07:21:19;8.30;99.90
52879;DHT22;38747;53.140;6.498;2023-10-19T07:23:44;8.30;99.90
52879;DHT22;38747;53.140;6.498;2023-10-19T07:26:11;8.30;99.90
52879;DHT22;38747;53.140;6.498;2023-10-19T07:28:39;8.30;99.90
52879;DHT22;38747;53.140;6.498;2023-10-19T07:31:06;8.30;99.90
52879;DHT22;38747;53.140;6.498;2023-10-19T07:33:37;8.30;99.90
52879;DHT22;38747;53.140;6.498;2023-10-19T07:36:15;8.30;99.90
52879;DHT22;38747;53.140;6.498;2023-10-19T07:38:40;8.40;99.90
52879;DHT22;38747;53.140;6.498;2023-10-19T07:41:08;8.30;99.90
52879;DHT22;38747;53.140;6.498;2023-10-19T07:43:35;8.40;99.90
52879;DHT22;38747;53.140;6.498;2023-10-19T07:46:01;8.40;99.90
52879;DHT22;38747;53.140;6.498;2023-10-19T07:48:26;8.40;99.90
52879;DHT22;38747;53.140;6.498;2023-10-19T07:50:52;8.40;99.90
52879;DHT22;38747;53.140;6.498;2023-10-19T07:53:18;8.40;99.90
52879;DHT22;38747;53.140;6.498;2023-10-19T07:55:44;8.40;99.90
52879;DHT22;38747;53.140;6.498;2023-10-19T07:58:10;8.40;99.90
52879;DHT22;38747;53.140;6.498;2023-10-19T08:00:36;8.40;99.90
52879;DHT22;38747;53.140;6.498;2023-10-19T08:03:02;8.50;99.90
52879;DHT22;38747;53.140;6.498;2023-10-19T08:05:28;8.50;99.90
52879;DHT22;38747;53.140;6.498;2023-10-19T08:07:54;8.50;99.90
52879;DHT22;38747;53.140;6.498;2023-10-19T08:10:22;8.50;99.90
52879;DHT22;38747;53.140;6.498;2023-10-19T08:12:48;8.50;99.90
52879;DHT22;38747;53.140;6.498;2023-10-19T08:15:16;8.50;99.90
52879;DHT22;38747;53.140;6.498;2023-10-19T08:17:43;8.50;99.90
52879;DHT22;38747;53.140;6.498;2023-10-19T08:20:11;8.50;99.90
52879;DHT22;38747;53.140;6.498;2023-10-19T08:22:45;8.50;99.90
52879;DHT22;38747;53.140;6.498;2023-10-19T08:25:13;8.50;99.90
52879;DHT22;38747;53.140;6.498;2023-10-19T08:27:43;8.50;99.90
52879;DHT22;38747;53.140;6.498;2023-10-19T08:30:11;8.50;99.90
52879;DHT22;38747;53.140;6.498;2023-10-19T08:32:39;8.50;99.90
52879;DHT22;38747;53.140;6.498;2023-10-19T08:35:05;8.50;99.90
52879;DHT22;38747;53.140;6.498;2023-10-19T08:37:31;8.60;99.90
52879;DHT22;38747;53.140;6.498;2023-10-19T08:39:59;8.60;99.90
52879;DHT22;38747;53.140;6.498;2023-10-19T08:42:25;8.60;99.90
52879;DHT22;38747;53.140;6.498;2023-10-19T08:44:50;8.60;99.90
52879;DHT22;38747;53.140;6.498;2023-10-19T08:47:16;8.60;99.90
52879;DHT22;38747;53.140;6.498;2023-10-19T08:49:42;8.60;99.90
52879;DHT22;38747;53.140;6.498;2023-10-19T08:52:08;8.70;99.90
52879;DHT22;38747;53.140;6.498;2023-10-19T08:54:34;8.70;99.90
52879;DHT22;38747;53.140;6.498;2023-10-19T08:57:00;8.70;99.90
52879;DHT22;38747;53.140;6.498;2023-10-19T08:59:26;8.70;99.90
52879;DHT22;38747;53.140;6.498;2023-10-19T09:02:00;8.70;99.90
52879;DHT22;38747;53.140;6.498;2023-10-19T09:04:28;8.70;99.90
52879;DHT22;38747;53.140;6.498;2023-10-19T09:06:54;8.70;99.90
52879;DHT22;38747;53.140;6.498;2023-10-19T09:09:20;8.80;99.90
52879;DHT22;38747;53.140;6.498;2023-10-19T09:11:47;8.80;99.90
52879;DHT22;38747;53.140;6.498;2023-10-19T09:14:17;8.80;99.90
52879;DHT22;38747;53.140;6.498;2023-10-19T09:16:56;8.80;99.90
52879;DHT22;38747;53.140;6.498;2023-10-19T09:19:42;8.80;99.90
52879;DHT22;38747;53.140;6.498;2023-10-19T09:22:09;8.80;99.90
52879;DHT22;38747;53.140;6.498;2023-10-19T09:24:45;8.80;99.90
52879;DHT22;38747;53.140;6.498;2023-10-19T09:27:11;8.80;99.90
52879;DHT22;38747;53.140;6.498;2023-10-19T09:29:38;8.90;99.90
52879;DHT22;38747;53.140;6.498;2023-10-19T09:32:05;8.80;99.90
52879;DHT22;38747;53.140;6.498;2023-10-19T09:34:32;8.90;99.90
52879;DHT22;38747;53.140;6.498;2023-10-19T09:37:00;8.90;99.90
52879;DHT22;38747;53.140;6.498;2023-10-19T09:39:29;8.90;99.90
52879;DHT22;38747;53.140;6.498;2023-10-19T09:42:08;8.90;99.90
52879;DHT22;38747;53.140;6.498;2023-10-19T09:44:49;9.00;99.90
52879;DHT22;38747;53.140;6.498;2023-10-19T09:47:35;9.00;99.90
52879;DHT22;38747;53.140;6.498;2023-10-19T09:50:04;9.00;99.90
52879;DHT22;38747;53.140;6.498;2023-10-19T09:52:33;9.00;99.90
52879;DHT22;38747;53.140;6.498;2023-10-19T09:55:22;9.00;99.90
52879;DHT22;38747;53.140;6.498;2023-10-19T09:57:53;9.00;99.90
52879;DHT22;38747;53.140;6.498;2023-10-19T10:00:21;9.10;99.90
52879;DHT22;38747;53.140;6.498;2023-10-19T10:02:50;9.10;99.90
52879;DHT22;38747;53.140;6.498;2023-10-19T10:05:45;9.10;99.90
52879;DHT22;38747;53.140;6.498;2023-10-19T10:10:50;9.10;99.90
52879;DHT22;38747;53.140;6.498;2023-10-19T10:15:57;9.20;99.90
52879;DHT22;38747;53.140;6.498;2023-10-19T10:18:27;9.20;99.90
52879;DHT22;38747;53.140;6.498;2023-10-19T10:21:21;9.20;99.90
52879;DHT22;38747;53.140;6.498;2023-10-19T10:23:49;9.20;99.90
52879;DHT22;38747;53.140;6.498;2023-10-19T10:26:17;9.20;99.90
52879;DHT22;38747;53.140;6.498;2023-10-19T10:28:47;9.20;99.90
52879;DHT22;38747;53.140;6.498;2023-10-19T10:31:22;9.20;99.90
52879;DHT22;38747;53.140;6.498;2023-10-19T10:33:50;9.20;99.90
52879;DHT22;38747;53.140;6.498;2023-10-19T10:36:18;9.20;99.90
52879;DHT22;38747;53.140;6.498;2023-10-19T10:38:45;9.20;99.90
52879;DHT22;38747;53.140;6.498;2023-10-19T10:41:12;9.20;99.90
52879;DHT22;38747;53.140;6.498;2023-10-19T10:43:49;9.20;99.90
52879;DHT22;38747;53.140;6.498;2023-10-19T10:46:15;9.30;99.90
52879;DHT22;38747;53.140;6.498;2023-10-19T10:48:42;9.30;99.90
52879;DHT22;38747;53.140;6.498;2023-10-19T10:51:18;9.30;99.90
52879;DHT22;38747;53.140;6.498;2023-10-19T10:53:46;9.30;99.90
52879;DHT22;38747;53.140;6.498;2023-10-19T10:56:12;9.30;99.90
52879;DHT22;38747;53.140;6.498;2023-10-19T10:58:38;9.30;99.90
52879;DHT22;38747;53.140;6.498;2023-10-19T11:01:04;9.40;99.90
52879;DHT22;38747;53.140;6.498;2023-10-19T11:03:30;9.30;99.90
52879;DHT22;38747;53.140;6.498;2023-10-19T11:06:06;9.40;99.90
52879;DHT22;38747;53.140;6.498;2023-10-19T11:08:34;9.30;99.90
52879;DHT22;38747;53.140;6.498;2023-10-19T11:11:08;9.40;99.90
52879;DHT22;38747;53.140;6.498;2023-10-19T11:13:37;9.40;99.90
52879;DHT22;38747;53.140;6.498;2023-10-19T11:16:05;9.40;99.90
52879;DHT22;38747;53.140;6.498;2023-10-19T11:18:38;9.40;99.90
52879;DHT22;38747;53.140;6.498;2023-10-19T11:21:12;9.40;99.90
52879;DHT22;38747;53.140;6.498;2023-10-19T11:23:48;9.40;99.90
52879;DHT22;38747;53.140;6.498;2023-10-19T11:26:17;9.40;99.90
52879;DHT22;38747;53.140;6.498;2023-10-19T11:28:43;9.40;99.90
52879;DHT22;38747;53.140;6.498;2023-10-19T11:31:20;9.40;99.90
52879;DHT22;38747;53.140;6.498;2023-10-19T11:33:47;9.40;99.90
52879;DHT22;38747;53.140;6.498;2023-10-19T11:36:19;9.40;99.90
52879;DHT22;38747;53.140;6.498;2023-10-19T11:38:47;9.40;99.90
52879;DHT22;38747;53.140;6.498;2023-10-19T11:41:14;9.40;99.90
52879;DHT22;38747;53.140;6.498;2023-10-19T11:43:41;9.40;99.90
52879;DHT22;38747;53.140;6.498;2023-10-19T11:46:08;9.50;99.90
52879;DHT22;38747;53.140;6.498;2023-10-19T11:48:35;9.50;99.90
52879;DHT22;38747;53.140;6.498;2023-10-19T11:51:02;9.50;99.90
52879;DHT22;38747;53.140;6.498;2023-10-19T11:53:33;9.50;99.90
52879;DHT22;38747;53.140;6.498;2023-10-19T11:56:04;9.50;99.90
52879;DHT22;38747;53.140;6.498;2023-10-19T11:58:31;9.50;99.90
52879;DHT22;38747;53.140;6.498;2023-10-19T12:01:01;9.50;99.90
52879;DHT22;38747;53.140;6.498;2023-10-19T12:03:29;9.50;99.90
52879;DHT22;38747;53.140;6.498;2023-10-19T12:05:56;9.60;99.90
52879;DHT22;38747;53.140;6.498;2023-10-19T12:08:22;9.60;99.90
52879;DHT22;38747;53.140;6.498;2023-10-19T12:10:50;9.60;99.90
52879;DHT22;38747;53.140;6.498;2023-10-19T12:13:16;9.70;99.90
52879;DHT22;38747;53.140;6.498;2023-10-19T12:15:42;9.70;99.90
52879;DHT22;38747;53.140;6.498;2023-10-19T12:18:20;9.70;99.90
52879;DHT22;38747;53.140;6.498;2023-10-19T12:20:46;9.70;99.90
52879;DHT22;38747;53.140;6.498;2023-10-19T12:23:13;9.70;99.90
52879;DHT22;38747;53.140;6.498;2023-10-19T12:25:39;9.70;99.90
52879;DHT22;38747;53.140;6.498;2023-10-19T12:28:05;9.70;99.90
52879;DHT22;38747;53.140;6.498;2023-10-19T12:30:31;9.70;99.90
52879;DHT22;38747;53.140;6.498;2023-10-19T12:33:05;9.70;99.90
52879;DHT22;38747;53.140;6.498;2023-10-19T12:35:41;9.70;99.90
52879;DHT22;38747;53.140;6.498;2023-10-19T12:38:42;9.70;99.90
52879;DHT22;38747;53.140;6.498;2023-10-19T12:41:07;9.60;99.90
52879;DHT22;38747;53.140;6.498;2023-10-19T12:43:34;9.60;99.90
52879;DHT22;38747;53.140;6.498;2023-10-19T12:46:00;9.60;99.90
52879;DHT22;38747;53.140;6.498;2023-10-19T12:48:27;9.60;99.90
52879;DHT22;38747;53.140;6.498;2023-10-19T12:50:55;9.70;99.90
52879;DHT22;38747;53.140;6.498;2023-10-19T12:53:21;9.70;99.90
52879;DHT22;38747;53.140;6.498;2023-10-19T12:55:50;9.60;99.90
52879;DHT22;38747;53.140;6.498;2023-10-19T12:58:16;9.70;99.90
52879;DHT22;38747;53.140;6.498;2023-10-19T13:00:45;9.60;99.90
52879;DHT22;38747;53.140;6.498;2023-10-19T13:03:11;9.60;99.90
52879;DHT22;38747;53.140;6.498;2023-10-19T13:05:42;9.60;99.90
52879;DHT22;38747;53.140;6.498;2023-10-19T13:08:10;9.60;99.90
52879;DHT22;38747;53.140;6.498;2023-10-19T13:10:39;9.50;99.90
52879;DHT22;38747;53.140;6.498;2023-10-19T13:13:08;9.60;99.90
52879;DHT22;38747;53.140;6.498;2023-10-19T13:15:38;9.50;99.90
52879;DHT22;38747;53.140;6.498;2023-10-19T13:18:05;9.50;99.90
52879;DHT22;38747;53.140;6.498;2023-10-19T13:20:33;9.50;99.90
52879;DHT22;38747;53.140;6.498;2023-10-19T13:23:02;9.50;99.90
52879;DHT22;38747;53.140;6.498;2023-10-19T13:25:30;9.50;99.90
52879;DHT22;38747;53.140;6.498;2023-10-19T13:28:11;9.50;99.90
52879;DHT22;38747;53.140;6.498;2023-10-19T13:30:51;9.50;99.90
52879;DHT22;38747;53.140;6.498;2023-10-19T13:33:21;9.40;99.90
52879;DHT22;38747;53.140;6.498;2023-10-19T13:35:47;9.40;99.90
52879;DHT22;38747;53.140;6.498;2023-10-19T13:38:15;9.40;99.90
52879;DHT22;38747;53.140;6.498;2023-10-19T13:40:44;9.40;99.90
52879;DHT22;38747;53.140;6.498;2023-10-19T13:43:15;9.40;99.90
52879;DHT22;38747;53.140;6.498;2023-10-19T13:45:44;9.40;99.90
52879;DHT22;38747;53.140;6.498;2023-10-19T13:48:11;9.30;99.90
52879;DHT22;38747;53.140;6.498;2023-10-19T13:50:45;9.30;99.90
52879;DHT22;38747;53.140;6.498;2023-10-19T13:53:14;9.30;99.90
52879;DHT22;38747;53.140;6.498;2023-10-19T13:55:41;9.40;99.90
52879;DHT22;38747;53.140;6.498;2023-10-19T13:58:07;9.40;99.90
52879;DHT22;38747;53.140;6.498;2023-10-19T14:00:33;9.30;99.90
52879;DHT22;38747;53.140;6.498;2023-10-19T14:02:59;9.30;99.90
52879;DHT22;38747;53.140;6.498;2023-10-19T14:05:27;9.30;99.90
52879;DHT22;38747;53.140;6.498;2023-10-19T14:07:53;9.30;99.90
52879;DHT22;38747;53.140;6.498;2023-10-19T14:10:19;9.30;99.90
52879;DHT22;38747;53.140;6.498;2023-10-19T14:12:46;9.30;99.90
52879;DHT22;38747;53.140;6.498;2023-10-19T14:15:14;9.30;99.90
52879;DHT22;38747;53.140;6.498;2023-10-19T14:17:44;9.30;99.90
52879;DHT22;38747;53.140;6.498;2023-10-19T14:20:11;9.20;99.90
52879;DHT22;38747;53.140;6.498;2023-10-19T14:22:44;9.20;99.90
52879;DHT22;38747;53.140;6.498;2023-10-19T14:25:11;9.20;99.90
52879;DHT22;38747;53.140;6.498;2023-10-19T14:27:41;9.20;99.90
52879;DHT22;38747;53.140;6.498;2023-10-19T14:30:11;9.20;99.90
52879;DHT22;38747;53.140;6.498;2023-10-19T14:32:42;9.20;99.90
52879;DHT22;38747;53.140;6.498;2023-10-19T14:35:10;9.20;99.90
52879;DHT22;38747;53.140;6.498;2023-10-19T14:37:43;9.20;99.90
52879;DHT22;38747;53.140;6.498;2023-10-19T14:40:11;9.20;99.90
52879;DHT22;38747;53.140;6.498;2023-10-19T14:42:38;9.20;99.90
52879;DHT22;38747;53.140;6.498;2023-10-19T14:45:08;9.20;99.90
52879;DHT22;38747;53.140;6.498;2023-10-19T14:47:38;9.20;99.90
52879;DHT22;38747;53.140;6.498;2023-10-19T14:50:10;9.20;99.90
52879;DHT22;38747;53.140;6.498;2023-10-19T14:52:37;9.20;99.90
52879;DHT22;38747;53.140;6.498;2023-10-19T14:55:05;9.20;99.90
52879;DHT22;38747;53.140;6.498;2023-10-19T14:57:35;9.20;99.90
52879;DHT22;38747;53.140;6.498;2023-10-19T15:00:01;9.20;99.90
52879;DHT22;38747;53.140;6.498;2023-10-19T15:02:40;9.20;99.90
52879;DHT22;38747;53.140;6.498;2023-10-19T15:05:06;9.20;99.90
52879;DHT22;38747;53.140;6.498;2023-10-19T15:07:32;9.20;99.90
52879;DHT22;38747;53.140;6.498;2023-10-19T15:09:58;9.20;99.90
52879;DHT22;38747;53.140;6.498;2023-10-19T15:12:23;9.20;99.90
52879;DHT22;38747;53.140;6.498;2023-10-19T15:14:50;9.20;99.90
52879;DHT22;38747;53.140;6.498;2023-10-19T15:17:15;9.20;99.90
52879;DHT22;38747;53.140;6.498;2023-10-19T15:19:42;9.10;99.90
52879;DHT22;38747;53.140;6.498;2023-10-19T15:22:08;9.10;99.90
52879;DHT22;38747;53.140;6.498;2023-10-19T15:24:34;9.20;99.90
52879;DHT22;38747;53.140;6.498;2023-10-19T15:27:00;9.20;99.90
52879;DHT22;38747;53.140;6.498;2023-10-19T15:29:26;9.10;99.90
52879;DHT22;38747;53.140;6.498;2023-10-19T15:31:51;9.20;99.90
52879;DHT22;38747;53.140;6.498;2023-10-19T15:34:17;9.10;99.90
52879;DHT22;38747;53.140;6.498;2023-10-19T15:36:45;9.10;99.90
52879;DHT22;38747;53.140;6.498;2023-10-19T15:39:11;9.10;99.90
52879;DHT22;38747;53.140;6.498;2023-10-19T15:41:36;9.10;99.90
52879;DHT22;38747;53.140;6.498;2023-10-19T15:44:02;9.10;99.90
52879;DHT22;38747;53.140;6.498;2023-10-19T15:46:29;9.10;99.90
52879;DHT22;38747;53.140;6.498;2023-10-19T15:48:57;9.10;99.90
52879;DHT22;38747;53.140;6.498;2023-10-19T15:51:22;9.10;99.90
52879;DHT22;38747;53.140;6.498;2023-10-19T15:53:48;9.10;99.90
52879;DHT22;38747;53.140;6.498;2023-10-19T15:56:13;9.10;99.90
52879;DHT22;38747;53.140;6.498;2023-10-19T15:58:43;9.00;99.90
52879;DHT22;38747;53.140;6.498;2023-10-19T16:01:09;9.00;99.90
52879;DHT22;38747;53.140;6.498;2023-10-19T16:03:36;9.00;99.90